Main page
METAR-TAF:

METAR-TAF

Airports :

St Mary's Airport

Isles of Scilly, England

latitude: 49-55N, longitude: 006-18W, elevation: 31 m

Current weather observation

The report was made 14 hours and 50 minutes ago, at 15:20 UTC
Wind 15 kt from the West/Northwest
Temperature 13°C
Humidity 77%
Pressure 1008 hPa
Visibility 10 km or more
Few clouds at a height of 1600 ft
Broken clouds at a height of 2200 ft

METAR: EGHE 041520Z 29015KT 9999 FEW016 BKN022 13/09 Q1008

Time: 07:10 (06:10 UTC)

Forecast

The report was made 15 hours and 39 minutes ago, at 14:31 UTC
Forecast valid from 04 at 15 UTC to 04 at 17 UTC
Wind 16 kt from the Northwest
Visibility 10 km or more
Scattered clouds at a height of 2000 ft
Probability 30% :
Temporary
from 04 at 15 UTC to 04 at 17 UTC
Visibility: 8000 m
Broken clouds at a height of 900 ft
light rain showers

TAF: EGHE 041431Z 0415/0417 31016KT 9999 SCT020 PROB30 TEMPO 0415/0417 8000 -SHRA BKN009

Weather observations and forecasts of more than 4000 airports (METAR and TAF reports).

The available stations are represented by yellow and red dots on the map.

Hover mouse over dot to see the name of the station.

Then click to see weather observations and forecasts.

To change the map : click on the green buttons with a black cross to zoom in, on the green button with a dash to zoom out, or on the green arrows for adjacent maps.


METAR-TAF: